createdAt,value
2023-05-20T00:00:01.522Z,12.80
2023-05-20T00:02:28.830Z,12.80
2023-05-20T00:04:56.019Z,12.90
2023-05-20T00:07:23.165Z,12.80
2023-05-20T00:09:50.129Z,12.80
2023-05-20T00:12:17.036Z,12.80
2023-05-20T00:14:43.927Z,12.70
2023-05-20T00:17:10.784Z,12.70
2023-05-20T00:19:37.667Z,12.70
2023-05-20T00:22:05.448Z,12.70
2023-05-20T00:24:32.299Z,12.50
2023-05-20T00:26:59.172Z,12.60
2023-05-20T00:29:26.049Z,12.60
2023-05-20T00:31:53.037Z,12.60
2023-05-20T00:34:20.684Z,12.50
2023-05-20T00:36:47.574Z,12.40
2023-05-20T00:39:14.399Z,12.40
2023-05-20T00:41:41.285Z,12.50
2023-05-20T00:44:08.247Z,12.40
2023-05-20T00:46:36.097Z,12.30
2023-05-20T00:49:03.119Z,12.30
2023-05-20T00:51:30.101Z,12.30
2023-05-20T00:53:57.652Z,12.30
2023-05-20T00:56:25.199Z,12.30
2023-05-20T00:58:52.354Z,12.30
2023-05-20T01:01:19.295Z,12.50
2023-05-20T01:03:46.900Z,12.40
2023-05-20T01:06:13.865Z,12.30
2023-05-20T01:08:40.959Z,12.30
2023-05-20T01:11:21.572Z,12.30
2023-05-20T01:13:55.754Z,12.30
2023-05-20T01:16:24.927Z,12.30
2023-05-20T01:18:56.079Z,12.30
2023-05-20T01:21:23.776Z,12.30
2023-05-20T01:23:51.133Z,12.30
2023-05-20T01:26:18.987Z,12.20
2023-05-20T01:28:45.958Z,12.20
2023-05-20T01:31:22.921Z,12.20
2023-05-20T01:33:58.056Z,12.20
2023-05-20T01:36:27.563Z,12.20
2023-05-20T01:38:54.949Z,12.10
2023-05-20T01:41:25.230Z,12.10
2023-05-20T01:43:52.376Z,12.00
2023-05-20T01:46:19.361Z,12.00
2023-05-20T01:48:46.227Z,11.90
2023-05-20T01:51:13.111Z,11.90
2023-05-20T01:53:39.986Z,11.80
2023-05-20T01:56:06.954Z,11.90
2023-05-20T01:58:33.978Z,11.80
2023-05-20T02:01:01.640Z,11.80
2023-05-20T02:03:28.669Z,11.80
2023-05-20T02:05:55.688Z,11.80
2023-05-20T02:08:22.629Z,11.70
2023-05-20T02:10:49.686Z,11.70
2023-05-20T02:13:16.743Z,11.70
2023-05-20T02:15:43.693Z,11.70
2023-05-20T02:18:12.472Z,11.70
2023-05-20T02:20:39.578Z,11.70
2023-05-20T02:23:06.626Z,11.70
2023-05-20T02:25:33.817Z,11.70
2023-05-20T02:28:00.932Z,11.70
2023-05-20T02:30:27.940Z,11.70
2023-05-20T02:32:54.849Z,11.70
2023-05-20T02:35:21.808Z,11.70
2023-05-20T02:37:48.658Z,11.70
2023-05-20T02:40:15.623Z,11.80
2023-05-20T02:42:42.512Z,11.80
2023-05-20T02:45:09.817Z,11.80
2023-05-20T02:47:36.716Z,11.80
2023-05-20T02:50:04.053Z,11.90
2023-05-20T02:52:30.923Z,11.90
2023-05-20T02:54:58.472Z,11.90
2023-05-20T02:57:27.284Z,11.90
2023-05-20T02:59:56.336Z,11.90
2023-05-20T03:02:23.671Z,11.90
2023-05-20T03:04:50.713Z,11.80
2023-05-20T03:07:19.705Z,11.80
2023-05-20T03:09:46.872Z,11.80
2023-05-20T03:12:13.791Z,11.80
2023-05-20T03:14:40.657Z,11.80
2023-05-20T03:17:09.049Z,11.80
2023-05-20T03:19:36.139Z,11.80
2023-05-20T03:22:03.047Z,11.80
2023-05-20T03:24:30.085Z,11.80
2023-05-20T03:26:57.073Z,11.70
2023-05-20T03:29:24.006Z,11.70
2023-05-20T03:31:51.242Z,11.70
2023-05-20T03:34:18.194Z,11.90
2023-05-20T03:36:45.210Z,11.90
2023-05-20T03:39:12.231Z,11.80
2023-05-20T03:41:39.137Z,11.80
2023-05-20T03:44:06.246Z,11.80
2023-05-20T03:46:34.356Z,11.90
2023-05-20T03:49:04.579Z,11.80
2023-05-20T03:51:31.525Z,11.90
2023-05-20T03:53:58.401Z,11.90
2023-05-20T03:56:26.392Z,11.90
2023-05-20T03:58:53.569Z,11.90
2023-05-20T04:01:21.242Z,12.00
2023-05-20T04:03:48.228Z,11.90
2023-05-20T04:06:15.216Z,11.90
2023-05-20T04:08:42.365Z,12.00
2023-05-20T04:11:09.269Z,12.00
2023-05-20T04:13:36.148Z,12.00
2023-05-20T04:16:05.339Z,11.90
2023-05-20T04:18:32.231Z,11.90
2023-05-20T04:21:01.942Z,12.00
2023-05-20T04:23:29.087Z,12.00
2023-05-20T04:25:56.073Z,12.10
2023-05-20T04:28:23.953Z,12.10
2023-05-20T04:31:05.112Z,12.20
2023-05-20T04:33:33.018Z,12.30
2023-05-20T04:36:01.430Z,12.40
2023-05-20T04:38:32.582Z,12.30
2023-05-20T04:41:00.321Z,12.30
2023-05-20T04:43:30.057Z,12.30
2023-05-20T04:45:57.909Z,12.40
2023-05-20T04:48:24.857Z,12.40
2023-05-20T04:50:55.001Z,12.40
2023-05-20T04:53:21.985Z,12.40
2023-05-20T04:55:55.109Z,12.40
2023-05-20T04:58:24.317Z,12.40
2023-05-20T05:00:52.396Z,12.60
2023-05-20T05:03:19.304Z,12.70
2023-05-20T05:05:46.219Z,12.70
2023-05-20T05:08:13.137Z,12.80
2023-05-20T05:10:40.543Z,13.00
2023-05-20T05:13:07.409Z,12.90
2023-05-20T05:15:34.443Z,13.10
2023-05-20T05:18:01.799Z,13.20
2023-05-20T05:20:28.712Z,13.20
2023-05-20T05:22:55.580Z,13.30
2023-05-20T05:25:22.437Z,13.50
2023-05-20T05:27:50.398Z,13.70
2023-05-20T05:30:17.405Z,13.80
2023-05-20T05:32:44.372Z,13.90
2023-05-20T05:35:11.385Z,13.80
2023-05-20T05:37:38.348Z,13.90
2023-05-20T05:40:08.179Z,13.90
2023-05-20T05:42:35.056Z,14.10
2023-05-20T05:45:01.970Z,14.30
2023-05-20T05:47:32.596Z,14.40
2023-05-20T05:50:00.098Z,14.50
2023-05-20T05:52:27.472Z,14.80
2023-05-20T05:54:55.517Z,15.00
2023-05-20T05:57:22.663Z,15.00
2023-05-20T05:59:49.529Z,15.00
2023-05-20T06:02:16.455Z,15.20
2023-05-20T06:04:43.455Z,15.20
2023-05-20T06:07:10.680Z,15.30
2023-05-20T06:09:39.163Z,15.50
2023-05-20T06:12:06.306Z,15.80
2023-05-20T06:14:33.281Z,16.10
2023-05-20T06:17:00.526Z,16.40
2023-05-20T06:19:27.496Z,16.80
2023-05-20T06:21:54.351Z,16.90
2023-05-20T06:24:22.412Z,17.20
2023-05-20T06:26:52.257Z,17.30
2023-05-20T06:29:19.225Z,17.30
2023-05-20T06:31:46.065Z,16.90
2023-05-20T06:34:13.039Z,16.70
2023-05-20T06:36:39.896Z,16.60
2023-05-20T06:39:12.180Z,16.80
2023-05-20T06:41:40.180Z,16.90
2023-05-20T06:44:08.137Z,17.00
2023-05-20T06:46:35.245Z,17.00
2023-05-20T06:49:03.116Z,16.80
2023-05-20T06:51:29.985Z,16.90
2023-05-20T06:53:56.864Z,17.20
2023-05-20T06:56:23.737Z,17.50
2023-05-20T06:58:50.633Z,17.90
2023-05-20T07:01:18.248Z,17.90
2023-05-20T07:03:45.554Z,17.90
2023-05-20T07:06:12.511Z,18.00
2023-05-20T07:08:39.336Z,18.20
2023-05-20T07:11:06.302Z,18.60
2023-05-20T07:13:33.129Z,18.60
2023-05-20T07:16:00.037Z,18.70
2023-05-20T07:18:26.976Z,18.70
2023-05-20T07:20:54.136Z,18.90
2023-05-20T07:23:20.954Z,19.00
2023-05-20T07:25:47.826Z,19.10
2023-05-20T07:28:16.833Z,19.20
2023-05-20T07:30:49.904Z,19.10
2023-05-20T07:33:17.674Z,18.90
2023-05-20T07:35:45.522Z,18.90
2023-05-20T07:38:13.146Z,19.00
2023-05-20T07:40:41.466Z,19.00
2023-05-20T07:43:09.215Z,19.10
2023-05-20T07:45:39.403Z,19.00
2023-05-20T07:48:08.673Z,19.00
2023-05-20T07:50:36.427Z,18.80
2023-05-20T07:53:03.296Z,19.10
2023-05-20T07:55:31.323Z,19.50
2023-05-20T07:57:58.212Z,19.80
2023-05-20T08:00:25.139Z,19.80
2023-05-20T08:02:52.265Z,20.00
2023-05-20T08:05:19.411Z,20.00
2023-05-20T08:07:46.431Z,20.10
2023-05-20T08:10:13.364Z,20.10
2023-05-20T08:12:40.289Z,20.40
2023-05-20T08:15:08.302Z,20.70
2023-05-20T08:17:35.456Z,21.00
2023-05-20T08:20:02.582Z,21.20
2023-05-20T08:22:29.455Z,21.30
2023-05-20T08:24:56.362Z,21.30
2023-05-20T08:27:23.295Z,21.40
2023-05-20T08:29:50.193Z,21.70
2023-05-20T08:32:17.051Z,21.50
2023-05-20T08:34:43.910Z,21.40
2023-05-20T08:37:10.854Z,21.30
2023-05-20T08:39:37.738Z,20.80
2023-05-20T08:42:06.957Z,20.80
2023-05-20T08:44:34.847Z,21.20
2023-05-20T08:47:03.924Z,21.50
2023-05-20T08:49:32.056Z,21.90
2023-05-20T08:52:01.365Z,21.90
2023-05-20T08:54:46.030Z,22.00
2023-05-20T08:57:14.090Z,21.90
2023-05-20T08:59:46.842Z,22.20
2023-05-20T09:02:14.561Z,22.30
2023-05-20T09:04:41.600Z,22.00
2023-05-20T09:07:09.072Z,21.80
2023-05-20T09:09:36.303Z,22.20
2023-05-20T09:12:04.204Z,22.40
2023-05-20T09:14:31.905Z,22.10
2023-05-20T09:16:59.430Z,22.00
2023-05-20T09:19:26.906Z,21.80
2023-05-20T09:21:55.200Z,21.70
2023-05-20T09:24:26.785Z,21.80
2023-05-20T09:26:54.001Z,21.80
2023-05-20T09:29:21.714Z,21.80
2023-05-20T09:31:50.225Z,22.00
2023-05-20T09:34:17.939Z,22.40
2023-05-20T09:36:45.589Z,23.00
2023-05-20T09:39:20.279Z,23.30
2023-05-20T09:41:58.381Z,23.10
2023-05-20T09:44:25.612Z,23.00
2023-05-20T09:46:53.341Z,23.10
2023-05-20T09:49:21.697Z,23.00
2023-05-20T09:51:50.836Z,22.80
2023-05-20T09:54:22.520Z,23.20
2023-05-20T09:56:50.821Z,23.30
2023-05-20T09:59:21.899Z,22.90
2023-05-20T10:01:48.870Z,22.90
2023-05-20T10:04:18.290Z,22.70
2023-05-20T10:07:04.039Z,22.40
2023-05-20T10:09:54.073Z,22.30
2023-05-20T10:13:00.419Z,22.00
2023-05-20T10:15:44.128Z,22.00
2023-05-20T10:18:42.505Z,22.40
2023-05-20T10:21:25.317Z,22.40
2023-05-20T10:23:52.463Z,22.30
2023-05-20T10:26:21.815Z,22.50
2023-05-20T10:28:49.604Z,22.80
2023-05-20T10:31:21.066Z,23.00
2023-05-20T10:33:49.522Z,23.10
2023-05-20T10:36:27.753Z,23.20
2023-05-20T10:38:58.744Z,23.30
2023-05-20T10:41:28.854Z,23.30
2023-05-20T10:44:03.493Z,23.30
2023-05-20T10:46:40.078Z,23.40
2023-05-20T10:49:25.042Z,23.50
2023-05-20T10:51:52.418Z,23.60
2023-05-20T10:54:19.335Z,23.60
2023-05-20T10:56:54.024Z,23.40
2023-05-20T10:59:22.067Z,23.40
2023-05-20T11:01:49.496Z,23.40
2023-05-20T11:04:17.432Z,23.60
2023-05-20T11:06:54.028Z,23.60
2023-05-20T11:09:21.433Z,23.30
2023-05-20T11:11:49.121Z,22.90
2023-05-20T11:14:18.022Z,22.80
2023-05-20T11:16:45.806Z,22.70
2023-05-20T11:19:16.943Z,22.90
2023-05-20T11:21:45.691Z,23.10
2023-05-20T11:24:13.743Z,23.70
2023-05-20T11:26:41.142Z,24.30
2023-05-20T11:29:08.305Z,24.40
2023-05-20T11:31:39.059Z,24.20
2023-05-20T11:34:06.124Z,24.20
2023-05-20T11:36:33.020Z,24.30
2023-05-20T11:39:00.953Z,24.40
2023-05-20T11:41:28.808Z,24.80
2023-05-20T11:44:00.929Z,24.70
2023-05-20T11:46:28.755Z,24.70
2023-05-20T11:48:56.966Z,25.20
2023-05-20T11:51:30.326Z,25.70
2023-05-20T11:54:07.320Z,25.30
2023-05-20T11:56:39.130Z,24.90
2023-05-20T11:59:08.296Z,24.50
2023-05-20T12:01:46.011Z,24.30
2023-05-20T12:04:14.878Z,24.20
2023-05-20T12:06:44.002Z,24.30
2023-05-20T12:09:11.257Z,24.90
2023-05-20T12:11:41.299Z,25.70
2023-05-20T12:14:09.369Z,26.40
2023-05-20T12:16:38.030Z,26.10
2023-05-20T12:19:05.417Z,25.90
2023-05-20T12:21:32.521Z,25.90
2023-05-20T12:24:00.141Z,26.10
2023-05-20T12:26:28.817Z,26.40
2023-05-20T12:28:56.097Z,26.10
2023-05-20T12:31:23.403Z,25.90
2023-05-20T12:33:50.683Z,26.10
2023-05-20T12:36:17.668Z,26.40
2023-05-20T12:38:44.551Z,26.30
2023-05-20T12:41:11.850Z,26.30
2023-05-20T12:43:38.756Z,26.00
2023-05-20T12:46:06.253Z,26.10
2023-05-20T12:48:33.190Z,26.10
2023-05-20T12:51:00.487Z,26.50
2023-05-20T12:53:27.444Z,26.50
2023-05-20T12:55:54.372Z,26.20
2023-05-20T12:58:21.263Z,25.90
2023-05-20T13:00:48.288Z,25.80
2023-05-20T13:03:15.400Z,25.70
2023-05-20T13:05:42.416Z,25.30
2023-05-20T13:08:10.151Z,25.50
2023-05-20T13:10:37.858Z,26.10
2023-05-20T13:13:05.056Z,26.50
2023-05-20T13:15:33.214Z,26.50
2023-05-20T13:18:01.459Z,26.50
2023-05-20T13:20:29.809Z,26.50
2023-05-20T13:22:56.659Z,26.20
2023-05-20T13:25:23.612Z,26.10
2023-05-20T13:27:50.870Z,26.30
2023-05-20T13:30:17.923Z,26.30
2023-05-20T13:32:44.840Z,26.30
2023-05-20T13:35:13.088Z,26.60
2023-05-20T13:37:39.992Z,26.70
2023-05-20T13:40:10.291Z,26.90
2023-05-20T13:42:37.468Z,26.80
2023-05-20T13:45:04.994Z,26.60
2023-05-20T13:47:32.196Z,26.80
2023-05-20T13:50:01.311Z,26.90
2023-05-20T13:52:29.634Z,27.10
2023-05-20T13:54:56.472Z,27.70
2023-05-20T13:57:23.510Z,27.50
2023-05-20T13:59:50.361Z,27.20
2023-05-20T14:02:17.377Z,27.30
2023-05-20T14:04:46.758Z,27.70
2023-05-20T14:07:14.000Z,27.50
2023-05-20T14:09:41.055Z,27.30
2023-05-20T14:12:08.033Z,27.30
2023-05-20T14:14:34.997Z,27.10
2023-05-20T14:17:01.859Z,26.60
2023-05-20T14:19:31.408Z,26.20
2023-05-20T14:22:01.414Z,26.40
2023-05-20T14:24:28.376Z,26.30
2023-05-20T14:26:55.288Z,26.60
2023-05-20T14:29:22.155Z,26.90
2023-05-20T14:31:49.045Z,27.20
2023-05-20T14:34:15.911Z,26.90
2023-05-20T14:36:43.792Z,26.20
2023-05-20T14:39:10.653Z,25.90
2023-05-20T14:41:37.525Z,25.80
2023-05-20T14:44:04.487Z,25.50
2023-05-20T14:46:31.530Z,25.60
2023-05-20T14:48:58.489Z,26.10
2023-05-20T14:51:25.402Z,26.10
2023-05-20T14:53:52.241Z,25.80
2023-05-20T14:56:19.074Z,25.70
2023-05-20T14:58:45.944Z,25.50
2023-05-20T15:01:12.913Z,25.20
2023-05-20T15:03:39.957Z,25.00
2023-05-20T15:06:07.037Z,25.00
2023-05-20T15:08:33.915Z,24.80
2023-05-20T15:11:01.142Z,24.70
2023-05-20T15:13:28.023Z,24.60
2023-05-20T15:15:54.908Z,24.50
2023-05-20T15:18:22.380Z,24.20
2023-05-20T15:20:49.299Z,24.30
2023-05-20T15:23:17.690Z,24.20
2023-05-20T15:25:44.553Z,24.30
2023-05-20T15:28:11.679Z,24.20
2023-05-20T15:30:38.587Z,24.20
2023-05-20T15:33:05.556Z,24.00
2023-05-20T15:35:32.549Z,23.90
2023-05-20T15:37:59.416Z,24.10
2023-05-20T15:40:26.280Z,24.10
2023-05-20T15:42:53.509Z,24.00
2023-05-20T15:45:20.647Z,23.90
2023-05-20T15:47:47.571Z,23.90
2023-05-20T15:50:14.469Z,23.80
2023-05-20T15:52:41.460Z,23.60
2023-05-20T15:55:09.524Z,23.50
2023-05-20T15:57:36.417Z,23.40
2023-05-20T16:00:06.281Z,23.30
2023-05-20T16:02:35.980Z,23.50
2023-05-20T16:05:04.089Z,23.80
2023-05-20T16:07:31.356Z,23.90
2023-05-20T16:09:58.274Z,24.00
2023-05-20T16:12:25.109Z,23.90
2023-05-20T16:14:52.008Z,24.00
2023-05-20T16:17:21.700Z,24.10
2023-05-20T16:19:49.468Z,24.00
2023-05-20T16:22:18.036Z,23.80
2023-05-20T16:24:45.818Z,23.90
2023-05-20T16:27:12.889Z,23.80
2023-05-20T16:29:39.835Z,23.70
2023-05-20T16:32:07.501Z,23.50
2023-05-20T16:34:34.588Z,23.40
2023-05-20T16:37:01.824Z,23.40
2023-05-20T16:39:28.721Z,23.40
2023-05-20T16:41:55.595Z,23.10
2023-05-20T16:44:22.498Z,22.90
2023-05-20T16:46:49.618Z,22.80
2023-05-20T16:49:17.276Z,22.80
2023-05-20T16:51:44.143Z,22.70
2023-05-20T16:54:11.367Z,22.80
2023-05-20T16:56:38.208Z,22.80
2023-05-20T16:59:05.130Z,22.80
2023-05-20T17:01:32.179Z,22.80
2023-05-20T17:03:59.102Z,22.70
2023-05-20T17:06:25.963Z,22.60
2023-05-20T17:08:52.864Z,22.60
2023-05-20T17:11:19.709Z,22.50
2023-05-20T17:13:46.576Z,22.40
2023-05-20T17:16:13.566Z,22.30
2023-05-20T17:18:40.560Z,22.30
2023-05-20T17:21:07.532Z,22.30
2023-05-20T17:23:34.390Z,22.30
2023-05-20T17:26:01.369Z,22.20
2023-05-20T17:28:28.264Z,22.10
2023-05-20T17:30:55.116Z,22.00
2023-05-20T17:33:22.104Z,21.90
2023-05-20T17:35:49.125Z,21.90
2023-05-20T17:38:16.018Z,21.90
2023-05-20T17:40:43.433Z,21.70
2023-05-20T17:43:10.353Z,21.60
2023-05-20T17:45:37.274Z,21.60
2023-05-20T17:48:08.774Z,21.50
2023-05-20T17:50:37.767Z,21.40
2023-05-20T17:53:04.645Z,21.50
2023-05-20T17:55:32.832Z,21.40
2023-05-20T17:58:01.780Z,21.40
2023-05-20T18:00:28.770Z,21.30
2023-05-20T18:02:58.519Z,21.20
2023-05-20T18:05:25.790Z,21.10
2023-05-20T18:07:52.850Z,21.00
2023-05-20T18:10:19.802Z,21.00
2023-05-20T18:12:46.618Z,20.90
2023-05-20T18:15:14.091Z,20.80
2023-05-20T18:17:41.216Z,20.80
2023-05-20T18:20:09.688Z,20.70
2023-05-20T18:22:36.589Z,20.70
2023-05-20T18:25:03.673Z,20.60
2023-05-20T18:27:31.813Z,20.50
2023-05-20T18:29:58.711Z,20.40
2023-05-20T18:32:28.373Z,20.40
2023-05-20T18:34:55.422Z,20.30
2023-05-20T18:37:22.280Z,20.20
2023-05-20T18:39:49.252Z,20.20
2023-05-20T18:42:17.141Z,20.20
2023-05-20T18:44:44.047Z,20.10
2023-05-20T18:47:11.162Z,20.00
2023-05-20T18:49:38.014Z,19.90
2023-05-20T18:52:05.332Z,19.90
2023-05-20T18:54:32.192Z,19.90
2023-05-20T18:56:59.170Z,19.80
2023-05-20T18:59:26.026Z,19.70
2023-05-20T19:01:52.865Z,19.70
2023-05-20T19:04:19.732Z,19.70
2023-05-20T19:06:48.025Z,19.60
2023-05-20T19:09:14.937Z,19.40
2023-05-20T19:11:41.761Z,19.40
2023-05-20T19:14:08.595Z,19.40
2023-05-20T19:16:35.737Z,19.40
2023-05-20T19:19:02.674Z,19.30
2023-05-20T19:21:31.281Z,19.30
2023-05-20T19:23:58.409Z,19.30
2023-05-20T19:26:26.423Z,19.20
2023-05-20T19:28:53.329Z,19.20
2023-05-20T19:31:22.927Z,19.00
2023-05-20T19:33:52.660Z,19.00
2023-05-20T19:36:19.735Z,19.10
2023-05-20T19:38:46.875Z,18.90
2023-05-20T19:41:14.245Z,19.00
2023-05-20T19:43:41.127Z,19.00
2023-05-20T19:46:08.108Z,19.00
2023-05-20T19:48:35.064Z,18.90
2023-05-20T19:51:02.513Z,18.80
2023-05-20T19:53:29.371Z,18.80
2023-05-20T19:55:56.240Z,18.80
2023-05-20T19:58:23.248Z,18.70
2023-05-20T20:00:50.112Z,18.70
2023-05-20T20:03:17.032Z,18.60
2023-05-20T20:05:43.968Z,18.60
2023-05-20T20:08:10.817Z,18.60
2023-05-20T20:10:37.833Z,18.50
2023-05-20T20:13:04.697Z,18.50
2023-05-20T20:15:32.081Z,18.50
2023-05-20T20:17:59.398Z,18.40
2023-05-20T20:20:26.894Z,18.40
2023-05-20T20:22:53.899Z,18.50
2023-05-20T20:25:20.975Z,18.40
2023-05-20T20:27:48.609Z,18.30
2023-05-20T20:30:15.653Z,18.40
2023-05-20T20:32:42.797Z,18.30
2023-05-20T20:35:10.775Z,18.20
2023-05-20T20:37:38.381Z,18.20
2023-05-20T20:40:08.063Z,18.20
2023-05-20T20:42:34.967Z,18.10
2023-05-20T20:45:02.294Z,18.00
2023-05-20T20:47:29.319Z,17.90
2023-05-20T20:49:56.750Z,18.00
2023-05-20T20:52:23.677Z,17.90
2023-05-20T20:54:50.511Z,17.90
2023-05-20T20:57:17.523Z,17.90
2023-05-20T20:59:47.857Z,17.90
2023-05-20T21:02:15.518Z,17.90
2023-05-20T21:04:43.086Z,17.90
2023-05-20T21:07:10.154Z,17.90
2023-05-20T21:09:36.999Z,18.00
2023-05-20T21:12:06.536Z,18.00
2023-05-20T21:14:33.471Z,17.90
2023-05-20T21:17:00.619Z,17.80
2023-05-20T21:19:27.759Z,17.80
2023-05-20T21:21:54.812Z,17.90
2023-05-20T21:24:21.717Z,17.90
2023-05-20T21:26:48.564Z,17.90
2023-05-20T21:29:15.436Z,18.00
2023-05-20T21:31:42.403Z,17.90
2023-05-20T21:34:09.252Z,17.90
2023-05-20T21:36:36.301Z,17.80
2023-05-20T21:39:03.605Z,17.80
2023-05-20T21:41:30.469Z,17.80
2023-05-20T21:43:57.306Z,17.80
2023-05-20T21:46:24.179Z,17.70
2023-05-20T21:48:51.097Z,17.70
2023-05-20T21:51:17.937Z,17.60
2023-05-20T21:53:45.885Z,17.60
2023-05-20T21:56:12.788Z,17.60
2023-05-20T21:58:41.608Z,17.50
2023-05-20T22:01:09.758Z,17.60
2023-05-20T22:03:37.163Z,17.50
2023-05-20T22:06:05.079Z,17.60
2023-05-20T22:08:35.030Z,17.50
2023-05-20T22:11:07.469Z,17.40
2023-05-20T22:13:35.757Z,17.40
2023-05-20T22:16:04.908Z,17.40
2023-05-20T22:18:32.130Z,17.40
2023-05-20T22:21:01.839Z,17.30
2023-05-20T22:23:29.248Z,17.40
2023-05-20T22:25:56.741Z,17.40
2023-05-20T22:28:23.765Z,17.30
2023-05-20T22:30:51.507Z,17.20
2023-05-20T22:33:18.462Z,17.10
2023-05-20T22:35:45.305Z,17.10
2023-05-20T22:38:12.130Z,17.10
2023-05-20T22:40:39.326Z,17.00
2023-05-20T22:43:06.300Z,17.00
2023-05-20T22:45:33.218Z,17.10
2023-05-20T22:48:00.224Z,17.10
2023-05-20T22:50:27.683Z,17.10
2023-05-20T22:52:54.858Z,17.00
2023-05-20T22:55:23.254Z,16.90
2023-05-20T22:57:50.127Z,16.80
2023-05-20T23:00:18.066Z,16.70
2023-05-20T23:02:49.605Z,16.70
2023-05-20T23:05:16.798Z,16.70
2023-05-20T23:07:44.779Z,16.60
2023-05-20T23:10:11.807Z,16.60
2023-05-20T23:12:38.721Z,16.60
2023-05-20T23:15:06.668Z,16.50
2023-05-20T23:17:33.516Z,16.50
2023-05-20T23:20:00.507Z,16.50
2023-05-20T23:22:27.557Z,16.50
2023-05-20T23:24:54.433Z,16.50
2023-05-20T23:27:21.328Z,16.40
2023-05-20T23:29:48.170Z,16.40
2023-05-20T23:32:15.092Z,16.40
2023-05-20T23:34:43.467Z,16.30
2023-05-20T23:37:10.378Z,16.30
2023-05-20T23:39:37.256Z,16.30
2023-05-20T23:42:05.054Z,16.30
2023-05-20T23:44:31.961Z,16.20
2023-05-20T23:46:58.809Z,16.20
2023-05-20T23:49:26.942Z,16.10
2023-05-20T23:51:54.002Z,16.10
2023-05-20T23:54:21.025Z,16.10
2023-05-20T23:56:48.789Z,16.10
2023-05-20T23:59:15.999Z,16.10
